Time;durP1;ratioP1;P1;durP2;ratioP2;P2;SDS_P1;SDS_P2;PMS_P1;PMS_P2;Temp;Humidity;BMP_temperature;BMP_pressure;BME280_temperature;BME280_humidity;BME280_pressure;Samples;Min_cycle;Max_cycle;Signal;HPM_P1;HPM_P2
2022/05/06 00:00:14;;;;;;;11.38;2.10;;;;;;;;;;5066288;28;20443;-74
2022/05/06 00:02:44;;;;;;;7.47;1.92;;;;;;;;;;5065842;28;20044;-73
2022/05/06 00:05:16;;;;;;;3.38;1.63;;;;;;;;;;5071969;28;20044;-73
2022/05/06 00:07:46;;;;;;;7.72;2.15;;;;;;;;;;5074700;28;20047;-73
2022/05/06 00:10:17;;;;;;;9.57;2.42;;;;;;;;;;5074770;28;20538;-73
2022/05/06 00:12:48;;;;;;;8.05;2.25;;;;;;;;;;5077843;28;20040;-73
2022/05/06 00:15:18;;;;;;;9.05;2.28;;;;;;;;;;5080171;28;20040;-73
2022/05/06 00:17:47;;;;;;;11.00;1.90;;;;;;;;;;5080121;28;20075;-74
2022/05/06 00:20:17;;;;;;;9.55;1.85;;;;;;;;;;5078821;28;20697;-73
2022/05/06 00:22:47;;;;;;;8.43;2.17;;;;;;;;;;5077420;28;20048;-72
2022/05/06 00:25:17;;;;;;;5.63;2.40;;;;;;;;;;5078992;28;20051;-73
2022/05/06 00:27:47;;;;;;;11.13;2.33;;;;;;;;;;5089113;28;20436;-73
2022/05/06 00:30:18;;;;;;;3.83;1.48;;;;;;;;;;5090076;28;20063;-74
2022/05/06 00:32:48;;;;;;;5.67;1.50;;;;;;;;;;5089877;28;20044;-72
2022/05/06 00:35:18;;;;;;;5.57;2.00;;;;;;;;;;5089275;28;20051;-73
2022/05/06 00:37:48;;;;;;;6.85;2.13;;;;;;;;;;5088833;28;20052;-72
2022/05/06 00:40:18;;;;;;;7.45;2.08;;;;;;;;;;5090049;28;20052;-73
2022/05/06 00:42:50;;;;;;;6.80;2.05;;;;;;;;;;5089294;28;20052;-73
2022/05/06 00:45:20;;;;;;;4.78;1.58;;;;;;;;;;5089927;28;20048;-72
2022/05/06 00:47:51;;;;;;;;;;;;;;;;;;5088351;28;20052;-72
2022/05/06 00:50:21;;;;;;;4.32;1.55;;;;;;;;;;5090018;28;19928;-73
2022/05/06 00:52:51;;;;;;;6.90;1.52;;;;;;;;;;5089695;28;20051;-76
2022/05/06 00:55:24;;;;;;;8.73;1.77;;;;;;;;;;5089663;28;20043;-72
2022/05/06 00:57:55;;;;;;;6.95;1.50;;;;;;;;;;5089063;28;20059;-73
2022/05/06 01:00:25;;;;;;;6.68;1.30;;;;;;;;;;5089524;28;20684;-72
2022/05/06 01:02:54;;;;;;;7.55;1.33;;;;;;;;;;5089878;28;20044;-72
2022/05/06 01:05:25;;;;;;;4.03;1.50;;;;;;;;;;5087319;28;20067;-73
2022/05/06 01:07:55;;;;;;;7.03;1.73;;;;;;;;;;5087678;28;20052;-74
2022/05/06 01:10:26;;;;;;;3.28;1.60;;;;;;;;;;5086897;28;20067;-73
2022/05/06 01:12:58;;;;;;;15.93;1.63;;;;;;;;;;5085069;28;20058;-73
2022/05/06 01:15:29;;;;;;;;;;;;;;;;;;5087736;28;20063;-72
2022/05/06 01:18:13;;;;;;;3.47;1.30;;;;;;;;;;5087118;28;19924;-73
2022/05/06 01:20:49;;;;;;;9.65;1.35;;;;;;;;;;5089453;28;20422;-73
2022/05/06 01:23:20;;;;;;;5.28;1.20;;;;;;;;;;5085649;28;20052;-73
2022/05/06 01:25:51;;;;;;;7.93;1.75;;;;;;;;;;5089745;28;20075;-73
2022/05/06 01:28:25;;;;;;;7.28;1.83;;;;;;;;;;5088942;28;20064;-73
2022/05/06 01:31:00;;;;;;;5.30;1.70;;;;;;;;;;5088608;28;20047;-72
2022/05/06 01:33:32;;;;;;;10.10;1.30;;;;;;;;;;5088834;28;20502;-73
2022/05/06 01:36:04;;;;;;;11.13;1.98;;;;;;;;;;5088427;28;20048;-73
2022/05/06 01:38:42;;;;;;;10.85;1.63;;;;;;;;;;5088648;28;20059;-73
2022/05/06 01:41:21;;;;;;;9.88;2.17;;;;;;;;;;5086937;28;20533;-73
2022/05/06 01:44:07;;;;;;;6.60;1.10;;;;;;;;;;5086367;28;20056;-73
2022/05/06 01:46:40;;;;;;;8.82;3.30;;;;;;;;;;5086851;28;20064;-73
2022/05/06 01:49:18;;;;;;;12.02;4.22;;;;;;;;;;5087103;28;20043;-72
2022/05/06 01:51:50;;;;;;;7.25;3.05;;;;;;;;;;5088668;28;20052;-72
2022/05/06 01:54:26;;;;;;;14.18;4.70;;;;;;;;;;5088116;28;20035;-73
2022/05/06 01:57:00;;;;;;;12.48;3.50;;;;;;;;;;5087263;28;20048;-72
2022/05/06 01:59:30;;;;;;;11.90;3.38;;;;;;;;;;5088338;28;20051;-72
2022/05/06 02:02:13;;;;;;;19.70;2.53;;;;;;;;;;5086228;28;20063;-72
2022/05/06 02:07:36;;;;;;;6.50;2.33;;;;;;;;;;5087023;28;20780;-73
2022/05/06 02:10:07;;;;;;;10.07;2.08;;;;;;;;;;5086451;28;20055;-73
2022/05/06 02:12:41;;;;;;;7.63;2.30;;;;;;;;;;5087698;28;20062;-72
2022/05/06 02:15:30;;;;;;;4.45;2.10;;;;;;;;;;5086269;28;20044;-73
2022/05/06 02:18:09;;;;;;;9.75;2.67;;;;;;;;;;5092375;28;20048;-72
2022/05/06 02:20:52;;;;;;;3.13;1.92;;;;;;;;;;5090766;28;20044;-72
2022/05/06 02:23:45;;;;;;;6.43;1.90;;;;;;;;;;5081984;28;20051;-72
2022/05/06 02:26:38;;;;;;;6.53;2.10;;;;;;;;;;5082822;28;20055;-72
2022/05/06 02:29:09;;;;;;;5.73;1.70;;;;;;;;;;5086276;28;20540;-73
2022/05/06 02:34:30;;;;;;;8.77;1.50;;;;;;;;;;5085914;28;20165;-72
2022/05/06 02:37:05;;;;;;;6.07;1.67;;;;;;;;;;5086023;28;20048;-72
2022/05/06 02:39:46;;;;;;;7.97;1.30;;;;;;;;;;5085681;28;20388;-72
2022/05/06 02:42:20;;;;;;;6.65;1.27;;;;;;;;;;5085721;28;20075;-73
2022/05/06 02:44:52;;;;;;;8.35;1.30;;;;;;;;;;5085805;28;20059;-72
2022/05/06 02:47:23;;;;;;;9.27;1.15;;;;;;;;;;5085907;28;20060;-73
2022/05/06 02:49:53;;;;;;;16.80;1.30;;;;;;;;;;5086069;28;20511;-73
2022/05/06 02:52:24;;;;;;;8.38;1.13;;;;;;;;;;5087773;28;20052;-73
2022/05/06 02:54:55;;;;;;;5.10;0.95;;;;;;;;;;5085798;28;20048;-72
2022/05/06 02:57:25;;;;;;;9.18;1.08;;;;;;;;;;5085420;28;20048;-72
2022/05/06 02:59:56;;;;;;;7.93;1.05;;;;;;;;;;5086060;28;20059;-72
2022/05/06 03:02:29;;;;;;;7.95;1.30;;;;;;;;;;5085622;28;20764;-73
2022/05/06 03:05:02;;;;;;;13.63;2.05;;;;;;;;;;5085692;28;20082;-73
2022/05/06 03:07:33;;;;;;;10.73;2.30;;;;;;;;;;5085085;28;20055;-73
2022/05/06 03:10:04;;;;;;;4.07;2.70;;;;;;;;;;5085568;28;20048;-73
2022/05/06 03:12:38;;;;;;;11.80;2.42;;;;;;;;;;5085809;28;20645;-73
2022/05/06 03:15:15;;;;;;;7.15;2.70;;;;;;;;;;5085792;28;20052;-73
2022/05/06 03:17:56;;;;;;;10.20;1.93;;;;;;;;;;5084860;28;20055;-72
2022/05/06 03:20:25;;;;;;;;;;;;;;;;;;5087535;28;20051;-72
2022/05/06 03:22:56;;;;;;;11.70;1.65;;;;;;;;;;5087204;28;19927;-73
2022/05/06 03:25:26;;;;;;;5.63;1.80;;;;;;;;;;5086454;28;20052;-73
2022/05/06 03:28:07;;;;;;;5.10;1.45;;;;;;;;;;5086619;28;20060;-73
2022/05/06 03:30:44;;;;;;;6.45;1.27;;;;;;;;;;5087450;28;20062;-73
2022/05/06 03:33:35;;;;;;;6.50;1.20;;;;;;;;;;5086424;28;20074;-73
2022/05/06 03:36:22;;;;;;;11.98;1.20;;;;;;;;;;5085507;28;20052;-72
2022/05/06 03:39:04;;;;;;;9.05;1.17;;;;;;;;;;5085085;28;20056;-73
2022/05/06 03:41:43;;;;;;;13.90;1.75;;;;;;;;;;5085003;28;20052;-72
2022/05/06 03:44:14;;;;;;;7.32;1.30;;;;;;;;;;5085195;28;20051;-73
2022/05/06 03:46:47;;;;;;;7.35;1.70;;;;;;;;;;5084217;28;20044;-72
2022/05/06 03:49:25;;;;;;;3.83;1.48;;;;;;;;;;5084139;28;20052;-73
2022/05/06 03:51:56;;;;;;;3.15;1.60;;;;;;;;;;5084797;28;20052;-72
2022/05/06 03:54:27;;;;;;;7.38;1.30;;;;;;;;;;5084540;28;20056;-73
2022/05/06 03:56:58;;;;;;;16.98;1.42;;;;;;;;;;5084578;28;20058;-73
2022/05/06 03:59:28;;;;;;;7.07;1.52;;;;;;;;;;5084364;28;20435;-73
2022/05/06 04:02:05;;;;;;;4.80;1.30;;;;;;;;;;5084820;28;20051;-73
2022/05/06 04:04:35;;;;;;;6.85;1.30;;;;;;;;;;5084065;28;20455;-73
2022/05/06 04:07:10;;;;;;;9.55;1.10;;;;;;;;;;5087062;28;20534;-73
2022/05/06 04:09:45;;;;;;;4.47;1.00;;;;;;;;;;5085465;28;20048;-72
2022/05/06 04:12:16;;;;;;;3.70;1.15;;;;;;;;;;5084591;28;20048;-74
2022/05/06 04:14:52;;;;;;;6.60;1.55;;;;;;;;;;5084922;28;20052;-73
2022/05/06 04:17:23;;;;;;;5.93;1.20;;;;;;;;;;5068759;28;20040;-72
2022/05/06 04:25:32;;;;;;;7.32;0.90;;;;;;;;;;5086360;28;20048;-72
2022/05/06 04:28:03;;;;;;;2.20;0.90;;;;;;;;;;5083999;28;20048;-73
2022/05/06 04:30:34;;;;;;;8.05;1.60;;;;;;;;;;5083947;28;20052;-73
2022/05/06 04:33:12;;;;;;;8.43;2.13;;;;;;;;;;5085252;28;20055;-73
2022/05/06 04:35:46;;;;;;;11.82;2.00;;;;;;;;;;5084968;28;20052;-72
2022/05/06 04:38:20;;;;;;;8.90;1.40;;;;;;;;;;5084789;28;20392;-73
2022/05/06 04:40:51;;;;;;;5.63;1.40;;;;;;;;;;5084661;28;20059;-73
2022/05/06 04:43:22;;;;;;;5.20;1.30;;;;;;;;;;5083859;28;20813;-73
2022/05/06 04:45:55;;;;;;;4.57;1.13;;;;;;;;;;5084615;28;20060;-73
2022/05/06 04:48:29;;;;;;;3.92;0.80;;;;;;;;;;5068514;28;20700;-73
2022/05/06 04:51:01;;;;;;;7.85;1.08;;;;;;;;;;5084486;28;20063;-73
2022/05/06 04:53:32;;;;;;;3.75;0.88;;;;;;;;;;5084480;28;20048;-73
2022/05/06 04:56:02;;;;;;;13.30;1.52;;;;;;;;;;5084534;28;20058;-73
2022/05/06 04:58:37;;;;;;;10.30;1.50;;;;;;;;;;5068723;28;20095;-73
2022/05/06 05:01:14;;;;;;;4.45;1.20;;;;;;;;;;5087690;28;20392;-72
2022/05/06 05:03:47;;;;;;;4.35;1.00;;;;;;;;;;5087716;28;21090;-73
2022/05/06 05:06:18;;;;;;;7.68;1.38;;;;;;;;;;5087094;28;20056;-73
2022/05/06 05:08:51;;;;;;;5.07;1.55;;;;;;;;;;5087892;28;20052;-72
2022/05/06 05:11:21;;;;;;;18.27;2.03;;;;;;;;;;5089594;28;20063;-73
2022/05/06 05:14:00;;;;;;;7.78;1.85;;;;;;;;;;5087562;28;20051;-72
2022/05/06 05:16:36;;;;;;;16.02;2.00;;;;;;;;;;5086020;28;20070;-74
2022/05/06 05:19:07;;;;;;;6.97;1.90;;;;;;;;;;5083909;28;20059;-73
2022/05/06 05:21:45;;;;;;;6.88;1.80;;;;;;;;;;5083424;28;20052;-72
2022/05/06 05:24:16;;;;;;;4.90;1.50;;;;;;;;;;5084712;28;20802;-73
2022/05/06 05:26:46;;;;;;;7.15;1.60;;;;;;;;;;5087579;28;20052;-72
2022/05/06 05:29:21;;;;;;;5.82;1.55;;;;;;;;;;5087813;28;20056;-72
2022/05/06 05:31:52;;;;;;;7.95;2.10;;;;;;;;;;5087560;28;20075;-73
2022/05/06 05:34:24;;;;;;;8.80;1.77;;;;;;;;;;5086204;28;20059;-73
2022/05/06 05:36:54;;;;;;;7.35;1.55;;;;;;;;;;5088950;28;20415;-73
2022/05/06 05:39:24;;;;;;;12.23;2.60;;;;;;;;;;5086847;28;20056;-72
2022/05/06 05:41:58;;;;;;;8.48;1.77;;;;;;;;;;5087234;28;20573;-73
2022/05/06 05:50:06;;;;;;;2.90;1.60;;;;;;;;;;5088451;28;20059;-73
2022/05/06 05:52:39;;;;;;;5.72;1.58;;;;;;;;;;5086697;28;20957;-73
2022/05/06 05:55:09;;;;;;;7.15;1.85;;;;;;;;;;5087155;28;20538;-73
2022/05/06 05:57:40;;;;;;;8.00;1.67;;;;;;;;;;5086755;28;20043;-72
2022/05/06 06:00:13;;;;;;;7.25;1.63;;;;;;;;;;5086710;28;20502;-73
2022/05/06 06:02:47;;;;;;;13.07;1.98;;;;;;;;;;5088465;28;20044;-73
2022/05/06 06:05:18;;;;;;;6.70;1.80;;;;;;;;;;5086957;28;20051;-73
2022/05/06 06:07:49;;;;;;;8.05;1.65;;;;;;;;;;5086203;28;20055;-73
2022/05/06 06:10:21;;;;;;;15.63;2.15;;;;;;;;;;5085952;28;20055;-73
2022/05/06 06:13:04;;;;;;;6.22;1.80;;;;;;;;;;5086304;28;20060;-73
2022/05/06 06:15:38;;;;;;;4.72;2.00;;;;;;;;;;5086557;28;20044;-72
2022/05/06 06:18:09;;;;;;;7.28;1.70;;;;;;;;;;5087534;28;20048;-73
2022/05/06 06:20:39;;;;;;;6.85;2.17;;;;;;;;;;5087003;28;20051;-72
2022/05/06 06:23:09;;;;;;;11.38;2.45;;;;;;;;;;5087822;28;20617;-73
2022/05/06 06:25:40;;;;;;;13.13;2.83;;;;;;;;;;5086228;28;20487;-73
2022/05/06 06:28:10;;;;;;;8.43;2.60;;;;;;;;;;5085963;28;20514;-73
2022/05/06 06:30:42;;;;;;;8.00;2.40;;;;;;;;;;5085748;28;20082;-72
2022/05/06 06:33:14;;;;;;;3.72;1.98;;;;;;;;;;5085614;28;20058;-72
2022/05/06 06:35:44;;;;;;;11.05;2.78;;;;;;;;;;5085681;28;20060;-73
2022/05/06 06:38:15;;;;;;;16.77;2.95;;;;;;;;;;5085867;28;20044;-72
2022/05/06 06:40:46;;;;;;;12.07;2.40;;;;;;;;;;5085862;28;20074;-73
2022/05/06 06:43:17;;;;;;;8.93;2.30;;;;;;;;;;5087578;28;20521;-73
2022/05/06 06:45:46;;;;;;;9.88;2.40;;;;;;;;;;5087415;28;20826;-73
2022/05/06 06:48:39;;;;;;;6.28;2.60;;;;;;;;;;5087794;28;20075;-73
2022/05/06 06:51:10;;;;;;;7.00;2.22;;;;;;;;;;5091938;28;20052;-72
2022/05/06 06:53:55;;;;;;;10.60;2.83;;;;;;;;;;5086255;28;20048;-72
2022/05/06 06:56:25;;;;;;;4.10;2.45;;;;;;;;;;5087568;28;20063;-72
2022/05/06 06:58:55;;;;;;;10.07;3.13;;;;;;;;;;5087241;28;20048;-72
2022/05/06 07:01:25;;;;;;;10.55;2.92;;;;;;;;;;5087427;28;20048;-73
2022/05/06 07:03:55;;;;;;;6.00;2.97;;;;;;;;;;5087085;28;20043;-72
2022/05/06 07:12:03;;;;;;;11.80;2.95;;;;;;;;;;5086691;28;20529;-73
2022/05/06 07:14:38;;;;;;;7.10;2.78;;;;;;;;;;5085766;28;20091;-73
2022/05/06 07:17:09;;;;;;;12.13;3.47;;;;;;;;;;5087112;28;20051;-72
2022/05/06 07:19:39;;;;;;;7.13;2.92;;;;;;;;;;5085991;28;20040;-73
2022/05/06 07:22:09;;;;;;;5.40;2.63;;;;;;;;;;5085534;28;20055;-73
2022/05/06 07:24:55;;;;;;;13.45;2.65;;;;;;;;;;5087323;28;20751;-73
2022/05/06 07:27:25;;;;;;;9.60;3.17;;;;;;;;;;5086364;28;20438;-72
2022/05/06 07:29:56;;;;;;;7.15;2.80;;;;;;;;;;5086626;28;20055;-72
2022/05/06 07:32:26;;;;;;;8.90;2.77;;;;;;;;;;5086786;28;20525;-74
2022/05/06 07:34:56;;;;;;;8.35;3.05;;;;;;;;;;5085952;28;20050;-73
2022/05/06 07:37:32;;;;;;;7.78;2.90;;;;;;;;;;5085059;28;20055;-73
2022/05/06 07:40:06;;;;;;;8.80;2.63;;;;;;;;;;5086688;28;20051;-74
2022/05/06 07:42:37;;;;;;;8.50;2.40;;;;;;;;;;5086881;28;20055;-73
2022/05/06 07:45:07;;;;;;;11.47;3.10;;;;;;;;;;5086370;28;20114;-74
2022/05/06 07:47:38;;;;;;;9.17;2.93;;;;;;;;;;5087016;28;20055;-73
2022/05/06 07:50:30;;;;;;;7.72;2.75;;;;;;;;;;5086362;28;20495;-73
2022/05/06 07:53:00;;;;;;;6.45;2.83;;;;;;;;;;5086040;28;20055;-73
2022/05/06 07:55:35;;;;;;;10.10;2.55;;;;;;;;;;5086390;28;20492;-73
2022/05/06 07:58:05;;;;;;;15.73;2.90;;;;;;;;;;5086354;28;20055;-72
2022/05/06 08:00:36;;;;;;;14.80;2.83;;;;;;;;;;5086592;28;20510;-74
2022/05/06 08:05:57;;;;;;;11.65;2.67;;;;;;;;;;5086532;28;20044;-74
2022/05/06 08:08:28;;;;;;;12.52;3.08;;;;;;;;;;5086830;28;20040;-72
2022/05/06 08:10:58;;;;;;;;;;;;;;;;;;5086475;28;20044;-71
2022/05/06 08:13:28;;;;;;;4.72;1.73;;;;;;;;;;5085909;28;20328;-77
2022/05/06 08:15:59;;;;;;;10.50;2.13;;;;;;;;;;5085897;28;20047;-74
2022/05/06 08:18:29;;;;;;;4.63;1.67;;;;;;;;;;5086648;28;20047;-75
2022/05/06 08:20:59;;;;;;;8.32;2.70;;;;;;;;;;5086215;28;20434;-74
2022/05/06 08:23:29;;;;;;;5.90;1.80;;;;;;;;;;5086056;28;20048;-72
2022/05/06 08:26:00;;;;;;;8.80;1.70;;;;;;;;;;5086596;28;20048;-73
2022/05/06 08:28:30;;;;;;;10.02;1.92;;;;;;;;;;5085828;28;20056;-72
2022/05/06 08:31:01;;;;;;;7.22;1.98;;;;;;;;;;5086713;28;20387;-74
2022/05/06 08:33:31;;;;;;;9.65;2.40;;;;;;;;;;5088631;28;20044;-73
2022/05/06 08:36:01;;;;;;;2.72;1.48;;;;;;;;;;5090212;28;20044;-72
2022/05/06 08:38:31;;;;;;;12.07;1.80;;;;;;;;;;5088746;28;20495;-72
2022/05/06 08:41:03;;;;;;;6.38;2.03;;;;;;;;;;5090026;28;20043;-72
2022/05/06 08:43:34;;;;;;;8.07;1.50;;;;;;;;;;5090209;28;20056;-72
2022/05/06 08:50:50;;;;;;;4.60;1.30;;;;;;;;;;5089041;28;20391;-72
2022/05/06 08:51:50;;;;;;;2.15;1.40;;;;;;;;;;5089218;28;20051;-72
2022/05/06 08:54:22;;;;;;;;;;;;;;;;;;5089245;28;20055;-73
2022/05/06 08:56:54;;;;;;;8.57;1.17;;;;;;;;;;5088141;28;19920;-73
2022/05/06 08:59:26;;;;;;;11.82;2.08;;;;;;;;;;5088719;28;20055;-74
2022/05/06 09:01:56;;;;;;;14.60;2.22;;;;;;;;;;5088285;28;20055;-73
2022/05/06 09:04:27;;;;;;;15.02;2.75;;;;;;;;;;5088491;28;20376;-72
2022/05/06 09:07:19;;;;;;;8.63;1.60;;;;;;;;;;5088025;28;20052;-73
2022/05/06 09:10:15;;;;;;;17.73;1.58;;;;;;;;;;5088829;28;20040;-73
2022/05/06 09:12:47;;;;;;;5.95;1.20;;;;;;;;;;5089704;28;20055;-73
2022/05/06 09:18:07;;;;;;;8.98;1.27;;;;;;;;;;5088635;28;20399;-72
2022/05/06 09:20:43;;;;;;;6.45;1.75;;;;;;;;;;5089449;28;20040;-73
2022/05/06 09:23:24;;;;;;;4.68;1.75;;;;;;;;;;5088886;28;20502;-77
2022/05/06 09:25:54;;;;;;;9.98;1.60;;;;;;;;;;5089114;28;20047;-73
2022/05/06 09:28:24;;;;;;;;;;;;;;;;;;5089700;28;20063;-73
2022/05/06 09:31:05;;;;;;;10.52;2.28;;;;;;;;;;5088759;28;19923;-73
2022/05/06 09:33:41;;;;;;;8.68;1.50;;;;;;;;;;5089153;28;20052;-73
2022/05/06 09:36:32;;;;;;;6.65;1.50;;;;;;;;;;5088030;28;20525;-74
2022/05/06 09:39:08;;;;;;;6.63;1.48;;;;;;;;;;5088381;28;20059;-74
2022/05/06 09:41:39;;;;;;;17.10;2.00;;;;;;;;;;5088462;28;20048;-74
2022/05/06 09:44:12;;;;;;;8.95;1.60;;;;;;;;;;5088716;28;20518;-74
2022/05/06 09:46:42;;;;;;;8.63;1.60;;;;;;;;;;5088474;28;20830;-74
2022/05/06 09:49:16;;;;;;;13.40;2.80;;;;;;;;;;5088594;28;20040;-73
2022/05/06 09:52:14;;;;;;;34.83;3.50;;;;;;;;;;5088533;28;20048;-75
2022/05/06 09:54:46;;;;;;;23.05;2.65;;;;;;;;;;5089225;28;20044;-74
2022/05/06 09:57:20;;;;;;;5.65;1.50;;;;;;;;;;5088486;28;20039;-75
2022/05/06 09:59:50;;;;;;;8.43;1.27;;;;;;;;;;5087929;28;20392;-73
2022/05/06 10:02:21;;;;;;;6.25;1.42;;;;;;;;;;5087958;28;20389;-73
2022/05/06 10:04:51;;;;;;;15.70;1.92;;;;;;;;;;5088139;28;20506;-73
2022/05/06 10:07:25;;;;;;;12.10;2.70;;;;;;;;;;5088243;28;20062;-74
2022/05/06 10:10:07;;;;;;;10.82;2.10;;;;;;;;;;5086390;28;20048;-74
2022/05/06 10:12:41;;;;;;;8.68;1.55;;;;;;;;;;5088121;28;20052;-73
2022/05/06 10:15:13;;;;;;;7.55;2.15;;;;;;;;;;5088307;28;20044;-76
2022/05/06 10:18:02;;;;;;;7.63;2.78;;;;;;;;;;5087979;28;20470;-73
2022/05/06 10:20:36;;;;;;;9.75;2.30;;;;;;;;;;5087037;28;20051;-75
2022/05/06 10:23:09;;;;;;;4.88;1.50;;;;;;;;;;5087762;28;20048;-76
2022/05/06 10:25:43;;;;;;;22.50;2.05;;;;;;;;;;5087869;28;20048;-73
2022/05/06 10:34:17;;;;;;;13.53;1.50;;;;;;;;;;5086051;28;20051;-74
2022/05/06 10:36:53;;;;;;;13.95;2.30;;;;;;;;;;5087830;28;20126;-73
2022/05/06 10:39:33;;;;;;;6.90;1.60;;;;;;;;;;5087118;28;20422;-73
2022/05/06 10:42:07;;;;;;;7.82;1.65;;;;;;;;;;5087801;28;20048;-73
2022/05/06 10:44:50;;;;;;;10.57;1.70;;;;;;;;;;5087334;28;20040;-73
2022/05/06 10:47:23;;;;;;;15.52;2.40;;;;;;;;;;5087841;28;20051;-72
2022/05/06 10:49:54;;;;;;;14.30;2.08;;;;;;;;;;5087287;28;20544;-73
2022/05/06 10:52:28;;;;;;;19.98;2.10;;;;;;;;;;5087605;28;20517;-72
2022/05/06 10:55:01;;;;;;;6.68;1.80;;;;;;;;;;5086871;28;20427;-72
2022/05/06 10:57:44;;;;;;;5.53;1.50;;;;;;;;;;5085804;28;20040;-72
2022/05/06 11:00:15;;;;;;;7.55;1.48;;;;;;;;;;5086828;28;20047;-72
2022/05/06 11:02:46;;;;;;;;;;;;;;;;;;5088087;28;20048;-72
2022/05/06 11:05:18;;;;;;;7.70;1.33;;;;;;;;;;5087044;28;19931;-72
2022/05/06 11:07:50;;;;;;;3.95;1.30;;;;;;;;;;5087215;28;20631;-74
2022/05/06 11:10:23;;;;;;;34.90;7.25;;;;;;;;;;5087298;28;20047;-73
2022/05/06 11:12:58;;;;;;;10.55;5.95;;;;;;;;;;5086137;28;20036;-74
2022/05/06 11:15:31;;;;;;;16.27;2.20;;;;;;;;;;5086923;28;20047;-72
2022/05/06 11:18:07;;;;;;;21.15;2.85;;;;;;;;;;5086127;28;20407;-72
2022/05/06 11:20:41;;;;;;;6.05;1.20;;;;;;;;;;5086757;28;20063;-72
2022/05/06 11:23:15;;;;;;;11.57;1.48;;;;;;;;;;5086661;28;20530;-75
2022/05/06 11:25:52;;;;;;;9.73;1.95;;;;;;;;;;5085950;28;20487;-76
2022/05/06 11:28:27;;;;;;;5.03;1.10;;;;;;;;;;5084389;28;20060;-72
2022/05/06 11:30:59;;;;;;;12.60;1.90;;;;;;;;;;5085186;28;20044;-74
2022/05/06 11:33:33;;;;;;;3.45;1.40;;;;;;;;;;5085320;28;20044;-73
2022/05/06 11:36:07;;;;;;;5.32;0.90;;;;;;;;;;5084504;28;20048;-75
2022/05/06 11:38:42;;;;;;;5.43;1.20;;;;;;;;;;5084771;28;20040;-73
2022/05/06 11:41:14;;;;;;;7.38;1.13;;;;;;;;;;5085504;28;20853;-73
2022/05/06 11:43:46;;;;;;;4.40;1.30;;;;;;;;;;5086421;28;20044;-74
2022/05/06 11:49:07;;;;;;;3.72;1.17;;;;;;;;;;5086104;28;20052;-73
2022/05/06 11:51:44;;;;;;;10.43;1.60;;;;;;;;;;5086297;28;20052;-74
2022/05/06 11:54:18;;;;;;;5.25;1.20;;;;;;;;;;5086464;28;20047;-73
2022/05/06 11:56:50;;;;;;;3.78;1.23;;;;;;;;;;5086805;28;20507;-72
2022/05/06 11:59:21;;;;;;;13.48;1.65;;;;;;;;;;5085035;28;20055;-74
2022/05/06 12:01:52;;;;;;;3.95;0.90;;;;;;;;;;5086450;28;20114;-72
2022/05/06 12:04:30;;;;;;;6.55;1.20;;;;;;;;;;5086175;28;20051;-72
2022/05/06 12:07:00;;;;;;;6.78;1.23;;;;;;;;;;5086385;28;20047;-72
2022/05/06 12:09:45;;;;;;;10.03;1.93;;;;;;;;;;5090189;28;20044;-73
2022/05/06 12:12:15;;;;;;;7.45;1.25;;;;;;;;;;5089360;28;20048;-72
2022/05/06 12:14:45;;;;;;;3.58;1.10;;;;;;;;;;5090702;28;20139;-72
2022/05/06 12:17:15;;;;;;;4.85;1.27;;;;;;;;;;5089832;28;20052;-74
2022/05/06 12:19:47;;;;;;;4.15;1.25;;;;;;;;;;5089983;28;20039;-74
2022/05/06 12:22:25;;;;;;;4.20;1.25;;;;;;;;;;5090240;28;20058;-74
2022/05/06 12:24:58;;;;;;;5.00;1.23;;;;;;;;;;5089546;28;20436;-75
2022/05/06 12:27:34;;;;;;;8.10;1.52;;;;;;;;;;5088518;28;20532;-73
2022/05/06 12:30:15;;;;;;;4.10;1.65;;;;;;;;;;5089525;28;20048;-73
2022/05/06 12:33:14;;;;;;;7.30;1.40;;;;;;;;;;5090188;28;20403;-74
2022/05/06 12:35:57;;;;;;;4.95;1.20;;;;;;;;;;5090446;28;20048;-74
2022/05/06 12:38:42;;;;;;;5.30;1.35;;;;;;;;;;5089271;28;20048;-74
2022/05/06 12:41:20;;;;;;;7.95;2.42;;;;;;;;;;5089901;28;20050;-74
2022/05/06 12:43:52;;;;;;;5.65;1.17;;;;;;;;;;5089614;28;20051;-75
2022/05/06 12:46:28;;;;;;;5.97;1.40;;;;;;;;;;5089543;28;20040;-74
2022/05/06 12:51:47;;;;;;;4.20;1.15;;;;;;;;;;5089378;28;20406;-74
2022/05/06 12:54:17;;;;;;;6.53;1.25;;;;;;;;;;5089564;28;20044;-74
2022/05/06 12:56:47;;;;;;;5.53;1.42;;;;;;;;;;5090279;28;20048;-73
2022/05/06 12:59:17;;;;;;;10.70;1.92;;;;;;;;;;5089409;28;20048;-74
2022/05/06 13:01:47;;;;;;;3.05;1.17;;;;;;;;;;5090053;28;20048;-73
2022/05/06 13:04:18;;;;;;;6.18;1.52;;;;;;;;;;5089199;28;20055;-74
2022/05/06 13:06:49;;;;;;;5.72;1.30;;;;;;;;;;5089233;28;20052;-74
2022/05/06 13:09:19;;;;;;;3.78;1.10;;;;;;;;;;5090125;28;20062;-75
2022/05/06 13:11:49;;;;;;;8.53;1.60;;;;;;;;;;5089217;28;20063;-74
2022/05/06 13:14:21;;;;;;;9.20;1.73;;;;;;;;;;5089432;28;20125;-74
2022/05/06 13:16:52;;;;;;;9.63;1.65;;;;;;;;;;5089448;28;20044;-74
2022/05/06 13:19:23;;;;;;;63.60;6.32;;;;;;;;;;5088134;28;20043;-74
2022/05/06 13:21:53;;;;;;;8.27;1.45;;;;;;;;;;5089214;28;20054;-74
2022/05/06 13:24:23;;;;;;;6.18;1.50;;;;;;;;;;5089217;28;20040;-74
2022/05/06 13:26:54;;;;;;;14.90;2.30;;;;;;;;;;5087765;28;20048;-74
2022/05/06 13:29:23;;;;;;;4.97;1.15;;;;;;;;;;5089152;28;20051;-74
2022/05/06 13:31:53;;;;;;;4.78;1.13;;;;;;;;;;5088813;28;20414;-73
2022/05/06 13:34:23;;;;;;;17.27;3.47;;;;;;;;;;5089354;28;20051;-74
2022/05/06 13:36:53;;;;;;;8.60;2.22;;;;;;;;;;5088958;28;20048;-74
2022/05/06 13:39:23;;;;;;;5.30;1.13;;;;;;;;;;5087756;28;20055;-74
2022/05/06 13:41:53;;;;;;;6.78;1.40;;;;;;;;;;5088568;28;20051;-74
2022/05/06 13:44:24;;;;;;;4.32;1.23;;;;;;;;;;5087166;28;20064;-74
2022/05/06 13:46:54;;;;;;;2.33;1.30;;;;;;;;;;5088503;28;20044;-74
2022/05/06 13:49:24;;;;;;;5.90;1.45;;;;;;;;;;5088930;28;20517;-74
2022/05/06 13:51:54;;;;;;;4.90;1.03;;;;;;;;;;5088940;28;20044;-73
2022/05/06 13:54:24;;;;;;;4.95;1.35;;;;;;;;;;5087386;28;20838;-73
2022/05/06 13:59:42;;;;;;;4.75;1.00;;;;;;;;;;5087353;28;20055;-74
2022/05/06 14:02:13;;;;;;;7.40;1.10;;;;;;;;;;5088306;28;20051;-78
2022/05/06 14:04:43;;;;;;;4.33;1.00;;;;;;;;;;5088263;28;20494;-74
2022/05/06 14:07:26;;;;;;;2.78;0.65;;;;;;;;;;5087841;28;20048;-75
2022/05/06 14:09:58;;;;;;;7.07;1.13;;;;;;;;;;5088168;28;20055;-75
2022/05/06 14:12:28;;;;;;;11.05;1.85;;;;;;;;;;5088392;28;20391;-74
2022/05/06 14:14:59;;;;;;;3.87;0.87;;;;;;;;;;5088219;28;20043;-75
2022/05/06 14:17:30;;;;;;;2.97;1.00;;;;;;;;;;5087627;28;20044;-75
2022/05/06 14:20:01;;;;;;;3.25;0.90;;;;;;;;;;5088182;28;20039;-75
2022/05/06 14:22:32;;;;;;;5.38;1.17;;;;;;;;;;5088235;28;20055;-74
2022/05/06 14:25:02;;;;;;;;;;;;;;;;;;5088626;28;20043;-74
2022/05/06 14:27:32;;;;;;;2.63;0.60;;;;;;;;;;5086340;28;19924;-75
2022/05/06 14:30:03;;;;;;;2.85;1.27;;;;;;;;;;5087153;28;20056;-75
2022/05/06 14:32:34;;;;;;;3.60;0.90;;;;;;;;;;5087766;28;20055;-73
2022/05/06 14:35:16;;;;;;;2.35;0.80;;;;;;;;;;5087489;28;20498;-74
2022/05/06 14:37:57;;;;;;;6.85;1.10;;;;;;;;;;5087719;28;20411;-74
2022/05/06 14:40:28;;;;;;;8.45;1.05;;;;;;;;;;5087401;28;20048;-75
2022/05/06 14:42:59;;;;;;;1.83;0.70;;;;;;;;;;5087383;28;20052;-79
2022/05/06 14:45:29;;;;;;;10.35;1.30;;;;;;;;;;5087224;28;20063;-73
2022/05/06 14:47:59;;;;;;;5.50;1.38;;;;;;;;;;5087971;28;20036;-74
2022/05/06 14:50:33;;;;;;;4.47;0.90;;;;;;;;;;5087177;28;20052;-73
2022/05/06 14:53:03;;;;;;;4.82;0.90;;;;;;;;;;5086895;28;20048;-74
2022/05/06 14:55:33;;;;;;;2.20;0.60;;;;;;;;;;5087025;28;20048;-74
2022/05/06 14:58:03;;;;;;;5.05;0.93;;;;;;;;;;5087409;28;20641;-74
2022/05/06 15:00:33;;;;;;;10.32;1.25;;;;;;;;;;5087402;28;20507;-72
2022/05/06 15:03:04;;;;;;;2.78;0.77;;;;;;;;;;5087348;28;20052;-75
2022/05/06 15:05:34;;;;;;;7.93;0.80;;;;;;;;;;5087102;28;20043;-73
2022/05/06 15:08:04;;;;;;;2.80;0.63;;;;;;;;;;5087130;28;20040;-74
2022/05/06 15:10:34;;;;;;;8.93;1.27;;;;;;;;;;5087112;28;20051;-73
2022/05/06 15:13:04;;;;;;;6.00;0.90;;;;;;;;;;5086423;28;20406;-73
2022/05/06 15:15:35;;;;;;;7.13;0.95;;;;;;;;;;5085767;28;20067;-73
2022/05/06 15:20:54;;;;;;;6.72;0.98;;;;;;;;;;5087223;28;20051;-73
2022/05/06 15:23:24;;;;;;;3.55;0.80;;;;;;;;;;5086868;28;20040;-74
2022/05/06 15:25:54;;;;;;;4.28;0.68;;;;;;;;;;5084982;28;20082;-73
2022/05/06 15:28:24;;;;;;;2.30;0.70;;;;;;;;;;5085956;28;20047;-73
2022/05/06 15:30:54;;;;;;;4.20;0.57;;;;;;;;;;5086533;28;20055;-73
2022/05/06 15:33:24;;;;;;;2.78;0.68;;;;;;;;;;5086620;28;20055;-73
2022/05/06 15:35:56;;;;;;;4.55;0.57;;;;;;;;;;5086967;28;20044;-73
2022/05/06 15:38:31;;;;;;;1.67;0.60;;;;;;;;;;5086870;28;20040;-74
2022/05/06 15:41:02;;;;;;;5.30;0.70;;;;;;;;;;5087677;28;20048;-73
2022/05/06 15:43:38;;;;;;;1.83;0.60;;;;;;;;;;5086107;28;20047;-76
2022/05/06 15:46:08;;;;;;;4.68;0.60;;;;;;;;;;5086941;28;20051;-73
2022/05/06 15:48:40;;;;;;;3.83;1.00;;;;;;;;;;5086667;28;20056;-74
2022/05/06 15:51:12;;;;;;;3.55;0.82;;;;;;;;;;5086293;28;20055;-73
2022/05/06 15:53:44;;;;;;;4.93;1.05;;;;;;;;;;5086439;28;20043;-73
2022/05/06 15:56:15;;;;;;;3.45;0.90;;;;;;;;;;5086335;28;20040;-73
2022/05/06 15:58:45;;;;;;;1.70;0.80;;;;;;;;;;5086378;28;20046;-75
2022/05/06 16:01:15;;;;;;;3.08;0.70;;;;;;;;;;5086107;28;20055;-74
2022/05/06 16:03:46;;;;;;;20.20;2.73;;;;;;;;;;5086554;28;20071;-74
2022/05/06 16:06:16;;;;;;;9.93;0.98;;;;;;;;;;5086079;28;20071;-73